sensor_id;sensor_type;location;lat;lon;timestamp;P1;durP1;ratioP1;P2;durP2;ratioP2
14096;SDS011;7125;48.106;11.544;2023-07-29T00:01:35;3.05;;;2.50;;
14096;SDS011;7125;48.106;11.544;2023-07-29T00:04:05;3.60;;;3.30;;
14096;SDS011;7125;48.106;11.544;2023-07-29T00:06:34;4.53;;;2.90;;
14096;SDS011;7125;48.106;11.544;2023-07-29T00:09:01;3.65;;;2.78;;
14096;SDS011;7125;48.106;11.544;2023-07-29T00:11:28;3.47;;;2.78;;
14096;SDS011;7125;48.106;11.544;2023-07-29T00:13:57;4.78;;;3.17;;
14096;SDS011;7125;48.106;11.544;2023-07-29T00:16:24;3.20;;;3.00;;
14096;SDS011;7125;48.106;11.544;2023-07-29T00:18:51;3.33;;;3.03;;
14096;SDS011;7125;48.106;11.544;2023-07-29T00:21:18;3.58;;;3.25;;
14096;SDS011;7125;48.106;11.544;2023-07-29T00:23:46;3.17;;;2.55;;
14096;SDS011;7125;48.106;11.544;2023-07-29T00:26:13;3.28;;;2.80;;
14096;SDS011;7125;48.106;11.544;2023-07-29T00:28:40;3.38;;;3.08;;
14096;SDS011;7125;48.106;11.544;2023-07-29T00:31:07;3.45;;;2.83;;
14096;SDS011;7125;48.106;11.544;2023-07-29T00:33:34;3.13;;;2.83;;
14096;SDS011;7125;48.106;11.544;2023-07-29T00:36:01;3.65;;;3.30;;
14096;SDS011;7125;48.106;11.544;2023-07-29T00:38:28;3.08;;;2.70;;
14096;SDS011;7125;48.106;11.544;2023-07-29T00:40:57;3.13;;;2.83;;
14096;SDS011;7125;48.106;11.544;2023-07-29T00:43:24;4.28;;;2.20;;
14096;SDS011;7125;48.106;11.544;2023-07-29T00:45:51;3.22;;;2.53;;
14096;SDS011;7125;48.106;11.544;2023-07-29T00:48:19;4.88;;;2.97;;
14096;SDS011;7125;48.106;11.544;2023-07-29T00:50:46;2.67;;;2.42;;
14096;SDS011;7125;48.106;11.544;2023-07-29T00:53:13;3.42;;;3.13;;
14096;SDS011;7125;48.106;11.544;2023-07-29T00:55:40;4.50;;;2.85;;
14096;SDS011;7125;48.106;11.544;2023-07-29T00:58:09;3.17;;;2.88;;
14096;SDS011;7125;48.106;11.544;2023-07-29T01:00:36;3.17;;;2.88;;
14096;SDS011;7125;48.106;11.544;2023-07-29T01:03:03;2.88;;;2.42;;
14096;SDS011;7125;48.106;11.544;2023-07-29T01:05:32;3.90;;;3.00;;
14096;SDS011;7125;48.106;11.544;2023-07-29T01:08:09;4.45;;;2.90;;
14096;SDS011;7125;48.106;11.544;2023-07-29T01:10:45;3.67;;;3.10;;
14096;SDS011;7125;48.106;11.544;2023-07-29T01:13:23;2.97;;;2.65;;
14096;SDS011;7125;48.106;11.544;2023-07-29T01:15:58;3.72;;;2.70;;
14096;SDS011;7125;48.106;11.544;2023-07-29T01:18:31;4.00;;;2.80;;
14096;SDS011;7125;48.106;11.544;2023-07-29T01:21:02;2.75;;;2.55;;
14096;SDS011;7125;48.106;11.544;2023-07-29T01:23:32;3.45;;;2.63;;
14096;SDS011;7125;48.106;11.544;2023-07-29T01:26:00;2.97;;;2.15;;
14096;SDS011;7125;48.106;11.544;2023-07-29T01:28:28;4.03;;;2.65;;
14096;SDS011;7125;48.106;11.544;2023-07-29T01:30:57;2.88;;;2.53;;
14096;SDS011;7125;48.106;11.544;2023-07-29T01:33:30;2.70;;;2.50;;
14096;SDS011;7125;48.106;11.544;2023-07-29T01:36:04;2.30;;;1.92;;
14096;SDS011;7125;48.106;11.544;2023-07-29T01:38:37;2.95;;;2.72;;
14096;SDS011;7125;48.106;11.544;2023-07-29T01:41:07;3.58;;;2.50;;
14096;SDS011;7125;48.106;11.544;2023-07-29T01:43:35;2.58;;;2.38;;
14096;SDS011;7125;48.106;11.544;2023-07-29T01:46:08;2.63;;;2.42;;
14096;SDS011;7125;48.106;11.544;2023-07-29T01:48:37;2.38;;;2.17;;
14096;SDS011;7125;48.106;11.544;2023-07-29T01:51:04;2.75;;;2.55;;
14096;SDS011;7125;48.106;11.544;2023-07-29T01:53:31;3.45;;;2.20;;
14096;SDS011;7125;48.106;11.544;2023-07-29T01:56:00;2.35;;;2.15;;
14096;SDS011;7125;48.106;11.544;2023-07-29T01:58:28;4.80;;;2.15;;
14096;SDS011;7125;48.106;11.544;2023-07-29T02:00:55;1.95;;;1.85;;
14096;SDS011;7125;48.106;11.544;2023-07-29T02:03:22;3.33;;;2.17;;
14096;SDS011;7125;48.106;11.544;2023-07-29T02:05:49;3.40;;;2.60;;
14096;SDS011;7125;48.106;11.544;2023-07-29T02:08:16;2.53;;;2.33;;
14096;SDS011;7125;48.106;11.544;2023-07-29T02:10:43;3.60;;;2.33;;
14096;SDS011;7125;48.106;11.544;2023-07-29T02:13:12;2.78;;;2.20;;
14096;SDS011;7125;48.106;11.544;2023-07-29T02:15:38;2.70;;;2.50;;
14096;SDS011;7125;48.106;11.544;2023-07-29T02:18:05;4.00;;;2.55;;
14096;SDS011;7125;48.106;11.544;2023-07-29T02:20:32;3.95;;;2.40;;
14096;SDS011;7125;48.106;11.544;2023-07-29T02:23:01;2.63;;;2.03;;
14096;SDS011;7125;48.106;11.544;2023-07-29T02:25:28;3.50;;;3.05;;
14096;SDS011;7125;48.106;11.544;2023-07-29T02:27:57;2.88;;;2.67;;
14096;SDS011;7125;48.106;11.544;2023-07-29T02:30:25;6.88;;;2.65;;
14096;SDS011;7125;48.106;11.544;2023-07-29T02:32:52;4.28;;;2.55;;
14096;SDS011;7125;48.106;11.544;2023-07-29T02:35:19;2.35;;;2.15;;
14096;SDS011;7125;48.106;11.544;2023-07-29T02:37:46;2.58;;;2.38;;
14096;SDS011;7125;48.106;11.544;2023-07-29T02:40:13;2.58;;;2.05;;
14096;SDS011;7125;48.106;11.544;2023-07-29T02:42:40;2.50;;;2.28;;
14096;SDS011;7125;48.106;11.544;2023-07-29T02:45:08;2.53;;;2.33;;
14096;SDS011;7125;48.106;11.544;2023-07-29T02:47:38;3.25;;;2.63;;
14096;SDS011;7125;48.106;11.544;2023-07-29T02:50:05;3.35;;;2.47;;
14096;SDS011;7125;48.106;11.544;2023-07-29T02:52:33;3.50;;;1.80;;
14096;SDS011;7125;48.106;11.544;2023-07-29T02:55:00;3.95;;;3.10;;
14096;SDS011;7125;48.106;11.544;2023-07-29T02:57:27;3.70;;;2.95;;
14096;SDS011;7125;48.106;11.544;2023-07-29T02:59:54;3.05;;;2.15;;
14096;SDS011;7125;48.106;11.544;2023-07-29T03:02:21;2.33;;;2.13;;
14096;SDS011;7125;48.106;11.544;2023-07-29T03:04:49;3.47;;;2.85;;
14096;SDS011;7125;48.106;11.544;2023-07-29T03:07:16;2.33;;;2.13;;
14096;SDS011;7125;48.106;11.544;2023-07-29T03:09:43;2.58;;;2.38;;
14096;SDS011;7125;48.106;11.544;2023-07-29T03:12:10;5.60;;;2.15;;
14096;SDS011;7125;48.106;11.544;2023-07-29T03:14:37;2.63;;;2.28;;
14096;SDS011;7125;48.106;11.544;2023-07-29T03:17:04;2.83;;;2.35;;
14096;SDS011;7125;48.106;11.544;2023-07-29T03:19:32;2.67;;;2.47;;
14096;SDS011;7125;48.106;11.544;2023-07-29T03:22:00;3.22;;;2.35;;
14096;SDS011;7125;48.106;11.544;2023-07-29T03:24:27;2.25;;;2.05;;
14096;SDS011;7125;48.106;11.544;2023-07-29T03:26:54;3.17;;;2.55;;
14096;SDS011;7125;48.106;11.544;2023-07-29T03:29:22;2.30;;;2.10;;
14096;SDS011;7125;48.106;11.544;2023-07-29T03:31:49;2.55;;;2.35;;
14096;SDS011;7125;48.106;11.544;2023-07-29T03:34:16;5.32;;;2.08;;
14096;SDS011;7125;48.106;11.544;2023-07-29T03:36:46;2.20;;;1.98;;
14096;SDS011;7125;48.106;11.544;2023-07-29T03:39:15;2.38;;;2.17;;
14096;SDS011;7125;48.106;11.544;2023-07-29T03:41:42;2.40;;;2.20;;
14096;SDS011;7125;48.106;11.544;2023-07-29T03:44:09;2.47;;;2.03;;
14096;SDS011;7125;48.106;11.544;2023-07-29T03:46:36;2.60;;;2.35;;
14096;SDS011;7125;48.106;11.544;2023-07-29T03:49:05;2.22;;;2.03;;
14096;SDS011;7125;48.106;11.544;2023-07-29T03:51:33;2.70;;;2.50;;
14096;SDS011;7125;48.106;11.544;2023-07-29T03:54:00;2.92;;;2.15;;
14096;SDS011;7125;48.106;11.544;2023-07-29T03:56:31;4.10;;;2.50;;
14096;SDS011;7125;48.106;11.544;2023-07-29T03:59:03;2.25;;;2.05;;
14096;SDS011;7125;48.106;11.544;2023-07-29T04:01:32;3.22;;;2.22;;
14096;SDS011;7125;48.106;11.544;2023-07-29T04:03:59;2.22;;;1.95;;
14096;SDS011;7125;48.106;11.544;2023-07-29T04:06:26;2.08;;;1.92;;
14096;SDS011;7125;48.106;11.544;2023-07-29T04:08:53;4.25;;;2.08;;
14096;SDS011;7125;48.106;11.544;2023-07-29T04:11:20;2.05;;;1.85;;
14096;SDS011;7125;48.106;11.544;2023-07-29T04:13:49;2.20;;;2.00;;
14096;SDS011;7125;48.106;11.544;2023-07-29T04:16:15;2.55;;;2.35;;
14096;SDS011;7125;48.106;11.544;2023-07-29T04:18:43;2.17;;;1.98;;
14096;SDS011;7125;48.106;11.544;2023-07-29T04:21:10;2.35;;;1.88;;
14096;SDS011;7125;48.106;11.544;2023-07-29T04:23:37;2.92;;;2.55;;
14096;SDS011;7125;48.106;11.544;2023-07-29T04:26:05;2.35;;;2.13;;
14096;SDS011;7125;48.106;11.544;2023-07-29T04:28:32;2.33;;;2.15;;
14096;SDS011;7125;48.106;11.544;2023-07-29T04:31:00;5.10;;;2.53;;
14096;SDS011;7125;48.106;11.544;2023-07-29T04:33:28;4.22;;;2.10;;
14096;SDS011;7125;48.106;11.544;2023-07-29T04:35:55;2.10;;;1.92;;
14096;SDS011;7125;48.106;11.544;2023-07-29T04:38:24;2.42;;;2.08;;
14096;SDS011;7125;48.106;11.544;2023-07-29T04:40:56;2.75;;;2.40;;
14096;SDS011;7125;48.106;11.544;2023-07-29T04:43:26;2.80;;;2.28;;
14096;SDS011;7125;48.106;11.544;2023-07-29T04:45:53;2.03;;;1.85;;
14096;SDS011;7125;48.106;11.544;2023-07-29T04:48:21;2.53;;;2.33;;
14096;SDS011;7125;48.106;11.544;2023-07-29T04:50:48;2.75;;;2.10;;
14096;SDS011;7125;48.106;11.544;2023-07-29T04:53:15;2.33;;;2.15;;
14096;SDS011;7125;48.106;11.544;2023-07-29T04:55:42;2.08;;;1.88;;
14096;SDS011;7125;48.106;11.544;2023-07-29T04:58:09;3.10;;;1.92;;
14096;SDS011;7125;48.106;11.544;2023-07-29T05:00:36;2.92;;;2.38;;
14096;SDS011;7125;48.106;11.544;2023-07-29T05:03:03;2.08;;;1.98;;
14096;SDS011;7125;48.106;11.544;2023-07-29T05:05:32;2.70;;;2.22;;
14096;SDS011;7125;48.106;11.544;2023-07-29T05:08:00;2.05;;;1.80;;
14096;SDS011;7125;48.106;11.544;2023-07-29T05:10:27;2.17;;;1.92;;
14096;SDS011;7125;48.106;11.544;2023-07-29T05:12:54;2.17;;;2.03;;
14096;SDS011;7125;48.106;11.544;2023-07-29T05:15:21;1.92;;;1.77;;
14096;SDS011;7125;48.106;11.544;2023-07-29T05:17:48;2.10;;;1.90;;
14096;SDS011;7125;48.106;11.544;2023-07-29T05:20:16;2.45;;;2.25;;
14096;SDS011;7125;48.106;11.544;2023-07-29T05:22:46;1.60;;;1.50;;
14096;SDS011;7125;48.106;11.544;2023-07-29T05:25:13;1.45;;;1.35;;
14096;SDS011;7125;48.106;11.544;2023-07-29T05:27:40;3.92;;;1.63;;
14096;SDS011;7125;48.106;11.544;2023-07-29T05:30:07;2.40;;;2.20;;
14096;SDS011;7125;48.106;11.544;2023-07-29T05:32:37;2.90;;;2.17;;
14096;SDS011;7125;48.106;11.544;2023-07-29T05:35:05;1.88;;;1.77;;
14096;SDS011;7125;48.106;11.544;2023-07-29T05:37:33;2.47;;;1.95;;
14096;SDS011;7125;48.106;11.544;2023-07-29T05:40:01;2.22;;;2.08;;
14096;SDS011;7125;48.106;11.544;2023-07-29T05:42:29;2.50;;;2.00;;
14096;SDS011;7125;48.106;11.544;2023-07-29T05:44:56;1.73;;;1.63;;
14096;SDS011;7125;48.106;11.544;2023-07-29T05:47:23;1.77;;;1.58;;
14096;SDS011;7125;48.106;11.544;2023-07-29T05:49:50;2.17;;;1.98;;
14096;SDS011;7125;48.106;11.544;2023-07-29T05:52:17;1.85;;;1.75;;
14096;SDS011;7125;48.106;11.544;2023-07-29T05:54:44;2.30;;;2.15;;
14096;SDS011;7125;48.106;11.544;2023-07-29T05:57:12;3.03;;;1.73;;
14096;SDS011;7125;48.106;11.544;2023-07-29T05:59:39;1.75;;;1.38;;
14096;SDS011;7125;48.106;11.544;2023-07-29T06:02:07;1.92;;;1.77;;
14096;SDS011;7125;48.106;11.544;2023-07-29T06:04:34;1.70;;;1.60;;
14096;SDS011;7125;48.106;11.544;2023-07-29T06:07:01;7.60;;;1.88;;
14096;SDS011;7125;48.106;11.544;2023-07-29T06:09:28;6.03;;;2.80;;
14096;SDS011;7125;48.106;11.544;2023-07-29T06:11:55;5.60;;;3.50;;
14096;SDS011;7125;48.106;11.544;2023-07-29T06:14:23;6.13;;;2.58;;
14096;SDS011;7125;48.106;11.544;2023-07-29T06:16:50;7.35;;;2.78;;
14096;SDS011;7125;48.106;11.544;2023-07-29T06:19:17;2.65;;;2.45;;
14096;SDS011;7125;48.106;11.544;2023-07-29T06:21:46;2.70;;;2.03;;
14096;SDS011;7125;48.106;11.544;2023-07-29T06:24:13;3.17;;;2.30;;
14096;SDS011;7125;48.106;11.544;2023-07-29T06:26:40;2.00;;;1.80;;
14096;SDS011;7125;48.106;11.544;2023-07-29T06:29:07;6.53;;;1.48;;
14096;SDS011;7125;48.106;11.544;2023-07-29T06:31:35;2.90;;;1.73;;
14096;SDS011;7125;48.106;11.544;2023-07-29T06:34:02;4.88;;;2.42;;
14096;SDS011;7125;48.106;11.544;2023-07-29T06:36:29;3.40;;;1.83;;
14096;SDS011;7125;48.106;11.544;2023-07-29T06:38:56;1.80;;;1.70;;
14096;SDS011;7125;48.106;11.544;2023-07-29T06:41:23;5.10;;;2.17;;
14096;SDS011;7125;48.106;11.544;2023-07-29T06:43:50;3.40;;;2.58;;
14096;SDS011;7125;48.106;11.544;2023-07-29T06:46:20;4.95;;;2.40;;
14096;SDS011;7125;48.106;11.544;2023-07-29T06:48:48;3.15;;;2.20;;
14096;SDS011;7125;48.106;11.544;2023-07-29T06:51:15;2.17;;;1.92;;
14096;SDS011;7125;48.106;11.544;2023-07-29T06:53:42;2.80;;;2.60;;
14096;SDS011;7125;48.106;11.544;2023-07-29T06:56:09;3.92;;;2.40;;
14096;SDS011;7125;48.106;11.544;2023-07-29T06:58:36;2.45;;;2.25;;
14096;SDS011;7125;48.106;11.544;2023-07-29T07:01:03;2.50;;;2.15;;
14096;SDS011;7125;48.106;11.544;2023-07-29T07:03:30;3.05;;;2.38;;
14096;SDS011;7125;48.106;11.544;2023-07-29T07:05:58;2.30;;;2.10;;
14096;SDS011;7125;48.106;11.544;2023-07-29T07:08:25;2.72;;;2.53;;
14096;SDS011;7125;48.106;11.544;2023-07-29T07:10:52;2.65;;;2.45;;
14096;SDS011;7125;48.106;11.544;2023-07-29T07:13:19;3.55;;;2.53;;
14096;SDS011;7125;48.106;11.544;2023-07-29T07:15:47;2.28;;;2.08;;
14096;SDS011;7125;48.106;11.544;2023-07-29T07:18:14;4.38;;;2.67;;
14096;SDS011;7125;48.106;11.544;2023-07-29T07:20:41;4.13;;;2.28;;
14096;SDS011;7125;48.106;11.544;2023-07-29T07:23:09;4.35;;;2.72;;
14096;SDS011;7125;48.106;11.544;2023-07-29T07:25:38;3.33;;;2.83;;
14096;SDS011;7125;48.106;11.544;2023-07-29T07:28:05;3.38;;;2.67;;
14096;SDS011;7125;48.106;11.544;2023-07-29T07:30:32;3.45;;;2.88;;
14096;SDS011;7125;48.106;11.544;2023-07-29T07:32:59;3.88;;;2.88;;
14096;SDS011;7125;48.106;11.544;2023-07-29T07:35:26;4.18;;;3.13;;
14096;SDS011;7125;48.106;11.544;2023-07-29T07:37:53;5.15;;;3.30;;
14096;SDS011;7125;48.106;11.544;2023-07-29T07:40:21;3.92;;;3.50;;
14096;SDS011;7125;48.106;11.544;2023-07-29T07:42:48;4.78;;;3.35;;
14096;SDS011;7125;48.106;11.544;2023-07-29T07:45:15;3.88;;;3.42;;
14096;SDS011;7125;48.106;11.544;2023-07-29T07:47:43;5.72;;;3.10;;
14096;SDS011;7125;48.106;11.544;2023-07-29T07:50:10;4.25;;;3.85;;
14096;SDS011;7125;48.106;11.544;2023-07-29T07:52:37;3.08;;;2.80;;
14096;SDS011;7125;48.106;11.544;2023-07-29T07:55:04;3.38;;;3.08;;
14096;SDS011;7125;48.106;11.544;2023-07-29T07:57:33;3.60;;;3.28;;
14096;SDS011;7125;48.106;11.544;2023-07-29T07:59:59;3.47;;;3.08;;
14096;SDS011;7125;48.106;11.544;2023-07-29T08:02:26;3.80;;;3.28;;
14096;SDS011;7125;48.106;11.544;2023-07-29T08:04:53;3.55;;;3.22;;
14096;SDS011;7125;48.106;11.544;2023-07-29T08:07:20;3.55;;;3.10;;
14096;SDS011;7125;48.106;11.544;2023-07-29T08:09:47;3.47;;;3.17;;
14096;SDS011;7125;48.106;11.544;2023-07-29T08:12:14;3.35;;;3.05;;
14096;SDS011;7125;48.106;11.544;2023-07-29T08:14:42;3.90;;;3.17;;
14096;SDS011;7125;48.106;11.544;2023-07-29T08:17:09;4.60;;;3.50;;
14096;SDS011;7125;48.106;11.544;2023-07-29T08:19:36;3.50;;;3.20;;
14096;SDS011;7125;48.106;11.544;2023-07-29T08:22:03;4.57;;;4.18;;
14096;SDS011;7125;48.106;11.544;2023-07-29T08:24:30;6.22;;;3.65;;
14096;SDS011;7125;48.106;11.544;2023-07-29T08:26:59;4.65;;;3.55;;
14096;SDS011;7125;48.106;11.544;2023-07-29T08:29:27;3.97;;;3.58;;
14096;SDS011;7125;48.106;11.544;2023-07-29T08:31:55;3.80;;;3.45;;
14096;SDS011;7125;48.106;11.544;2023-07-29T08:34:22;3.95;;;3.50;;
14096;SDS011;7125;48.106;11.544;2023-07-29T08:36:49;4.97;;;3.60;;
14096;SDS011;7125;48.106;11.544;2023-07-29T08:39:16;4.95;;;3.40;;
14096;SDS011;7125;48.106;11.544;2023-07-29T08:41:45;4.18;;;3.78;;
14096;SDS011;7125;48.106;11.544;2023-07-29T08:44:17;4.43;;;3.55;;
14096;SDS011;7125;48.106;11.544;2023-07-29T08:46:47;4.65;;;4.15;;
14096;SDS011;7125;48.106;11.544;2023-07-29T08:49:16;5.45;;;4.30;;
14096;SDS011;7125;48.106;11.544;2023-07-29T08:51:45;3.38;;;3.08;;
14096;SDS011;7125;48.106;11.544;2023-07-29T08:54:13;4.25;;;3.63;;
14096;SDS011;7125;48.106;11.544;2023-07-29T08:56:41;5.55;;;3.95;;
14096;SDS011;7125;48.106;11.544;2023-07-29T08:59:09;4.00;;;3.55;;
14096;SDS011;7125;48.106;11.544;2023-07-29T09:01:37;5.50;;;3.60;;
14096;SDS011;7125;48.106;11.544;2023-07-29T09:04:04;4.43;;;3.95;;
14096;SDS011;7125;48.106;11.544;2023-07-29T09:06:33;4.28;;;3.88;;
14096;SDS011;7125;48.106;11.544;2023-07-29T09:09:03;7.03;;;3.92;;
14096;SDS011;7125;48.106;11.544;2023-07-29T09:11:30;4.60;;;4.20;;
14096;SDS011;7125;48.106;11.544;2023-07-29T09:13:58;4.22;;;3.53;;
14096;SDS011;7125;48.106;11.544;2023-07-29T09:16:25;5.35;;;3.75;;
14096;SDS011;7125;48.106;11.544;2023-07-29T09:18:52;6.13;;;3.50;;
14096;SDS011;7125;48.106;11.544;2023-07-29T09:21:22;4.15;;;3.60;;
14096;SDS011;7125;48.106;11.544;2023-07-29T09:23:55;4.20;;;3.17;;
14096;SDS011;7125;48.106;11.544;2023-07-29T09:26:22;4.90;;;3.92;;
14096;SDS011;7125;48.106;11.544;2023-07-29T09:28:51;3.95;;;3.55;;
14096;SDS011;7125;48.106;11.544;2023-07-29T09:31:19;5.25;;;3.92;;
14096;SDS011;7125;48.106;11.544;2023-07-29T09:33:47;3.90;;;3.50;;
14096;SDS011;7125;48.106;11.544;2023-07-29T09:36:14;4.03;;;3.72;;
14096;SDS011;7125;48.106;11.544;2023-07-29T09:38:42;4.32;;;3.75;;
14096;SDS011;7125;48.106;11.544;2023-07-29T09:41:12;4.00;;;3.70;;
14096;SDS011;7125;48.106;11.544;2023-07-29T09:43:41;5.43;;;3.72;;
14096;SDS011;7125;48.106;11.544;2023-07-29T09:46:08;4.32;;;4.00;;
14096;SDS011;7125;48.106;11.544;2023-07-29T09:48:36;4.50;;;4.07;;
14096;SDS011;7125;48.106;11.544;2023-07-29T09:51:09;4.60;;;4.20;;
14096;SDS011;7125;48.106;11.544;2023-07-29T09:53:39;6.05;;;3.88;;
14096;SDS011;7125;48.106;11.544;2023-07-29T09:56:07;3.85;;;3.47;;
14096;SDS011;7125;48.106;11.544;2023-07-29T09:58:36;11.57;;;3.85;;
14096;SDS011;7125;48.106;11.544;2023-07-29T10:01:03;4.05;;;3.65;;
14096;SDS011;7125;48.106;11.544;2023-07-29T10:03:30;3.80;;;3.50;;
14096;SDS011;7125;48.106;11.544;2023-07-29T10:05:59;4.18;;;3.80;;
14096;SDS011;7125;48.106;11.544;2023-07-29T10:08:28;4.55;;;4.10;;
14096;SDS011;7125;48.106;11.544;2023-07-29T10:10:57;4.60;;;4.03;;
14096;SDS011;7125;48.106;11.544;2023-07-29T10:13:25;4.13;;;3.80;;
14096;SDS011;7125;48.106;11.544;2023-07-29T10:15:55;4.10;;;3.80;;
14096;SDS011;7125;48.106;11.544;2023-07-29T10:18:22;5.63;;;3.97;;
14096;SDS011;7125;48.106;11.544;2023-07-29T10:20:50;4.65;;;3.75;;
14096;SDS011;7125;48.106;11.544;2023-07-29T10:23:18;4.47;;;4.07;;
14096;SDS011;7125;48.106;11.544;2023-07-29T10:25:49;6.82;;;3.50;;
14096;SDS011;7125;48.106;11.544;2023-07-29T10:28:20;4.70;;;4.22;;
14096;SDS011;7125;48.106;11.544;2023-07-29T10:30:51;3.85;;;3.45;;
14096;SDS011;7125;48.106;11.544;2023-07-29T10:33:19;5.05;;;4.65;;
14096;SDS011;7125;48.106;11.544;2023-07-29T10:35:46;4.32;;;3.95;;
14096;SDS011;7125;48.106;11.544;2023-07-29T10:38:14;4.65;;;3.50;;
14096;SDS011;7125;48.106;11.544;2023-07-29T10:40:45;3.92;;;3.63;;
14096;SDS011;7125;48.106;11.544;2023-07-29T10:43:14;4.43;;;3.97;;
14096;SDS011;7125;48.106;11.544;2023-07-29T10:45:45;3.72;;;3.40;;
14096;SDS011;7125;48.106;11.544;2023-07-29T10:48:13;5.72;;;3.85;;
14096;SDS011;7125;48.106;11.544;2023-07-29T10:53:58;3.83;;;3.50;;
14096;SDS011;7125;48.106;11.544;2023-07-29T10:56:27;4.00;;;3.67;;
14096;SDS011;7125;48.106;11.544;2023-07-29T10:58:56;4.55;;;4.15;;
14096;SDS011;7125;48.106;11.544;2023-07-29T11:01:27;4.53;;;3.85;;
14096;SDS011;7125;48.106;11.544;2023-07-29T11:04:01;4.30;;;3.72;;
14096;SDS011;7125;48.106;11.544;2023-07-29T11:09:55;3.95;;;3.65;;
14096;SDS011;7125;48.106;11.544;2023-07-29T11:12:39;3.83;;;3.50;;
14096;SDS011;7125;48.106;11.544;2023-07-29T11:15:14;3.90;;;3.60;;
14096;SDS011;7125;48.106;11.544;2023-07-29T11:17:47;4.95;;;3.85;;
14096;SDS011;7125;48.106;11.544;2023-07-29T11:20:15;4.30;;;3.90;;
14096;SDS011;7125;48.106;11.544;2023-07-29T11:22:44;3.88;;;3.58;;
14096;SDS011;7125;48.106;11.544;2023-07-29T11:25:12;4.45;;;4.03;;
14096;SDS011;7125;48.106;11.544;2023-07-29T11:27:41;3.95;;;2.45;;
14096;SDS011;7125;48.106;11.544;2023-07-29T11:30:09;2.58;;;2.38;;
14096;SDS011;7125;48.106;11.544;2023-07-29T11:32:37;2.13;;;1.92;;
14096;SDS011;7125;48.106;11.544;2023-07-29T11:35:08;2.03;;;1.83;;
14096;SDS011;7125;48.106;11.544;2023-07-29T11:37:38;2.38;;;2.05;;
14096;SDS011;7125;48.106;11.544;2023-07-29T11:40:07;2.45;;;2.25;;
14096;SDS011;7125;48.106;11.544;2023-07-29T11:42:36;2.63;;;1.90;;
14096;SDS011;7125;48.106;11.544;2023-07-29T11:45:04;2.55;;;2.08;;
14096;SDS011;7125;48.106;11.544;2023-07-29T11:47:33;2.13;;;1.88;;
14096;SDS011;7125;48.106;11.544;2023-07-29T11:50:02;2.75;;;2.13;;
14096;SDS011;7125;48.106;11.544;2023-07-29T11:52:31;2.25;;;2.05;;
14096;SDS011;7125;48.106;11.544;2023-07-29T11:54:58;2.33;;;2.13;;
14096;SDS011;7125;48.106;11.544;2023-07-29T11:57:28;3.80;;;2.50;;
14096;SDS011;7125;48.106;11.544;2023-07-29T11:59:55;2.22;;;2.05;;
14096;SDS011;7125;48.106;11.544;2023-07-29T12:02:23;1.95;;;1.83;;
14096;SDS011;7125;48.106;11.544;2023-07-29T12:04:51;2.50;;;2.30;;
14096;SDS011;7125;48.106;11.544;2023-07-29T12:07:19;2.60;;;2.40;;
14096;SDS011;7125;48.106;11.544;2023-07-29T12:09:46;3.92;;;2.10;;
14096;SDS011;7125;48.106;11.544;2023-07-29T12:12:14;1.88;;;1.77;;
14096;SDS011;7125;48.106;11.544;2023-07-29T12:14:44;2.20;;;2.00;;
14096;SDS011;7125;48.106;11.544;2023-07-29T12:17:13;2.58;;;2.38;;
14096;SDS011;7125;48.106;11.544;2023-07-29T12:19:41;2.15;;;1.95;;
14096;SDS011;7125;48.106;11.544;2023-07-29T12:22:09;3.03;;;2.30;;
14096;SDS011;7125;48.106;11.544;2023-07-29T12:24:37;2.70;;;2.50;;
14096;SDS011;7125;48.106;11.544;2023-07-29T12:27:05;2.90;;;2.60;;
14096;SDS011;7125;48.106;11.544;2023-07-29T12:29:39;2.47;;;2.10;;
14096;SDS011;7125;48.106;11.544;2023-07-29T12:32:08;2.65;;;2.45;;
14096;SDS011;7125;48.106;11.544;2023-07-29T12:34:36;3.38;;;2.70;;
14096;SDS011;7125;48.106;11.544;2023-07-29T12:37:05;4.03;;;2.92;;
14096;SDS011;7125;48.106;11.544;2023-07-29T12:39:33;4.03;;;2.53;;
14096;SDS011;7125;48.106;11.544;2023-07-29T12:42:02;3.70;;;2.47;;
14096;SDS011;7125;48.106;11.544;2023-07-29T12:44:30;3.25;;;2.90;;
14096;SDS011;7125;48.106;11.544;2023-07-29T12:47:00;2.60;;;2.40;;
14096;SDS011;7125;48.106;11.544;2023-07-29T12:49:29;2.55;;;2.35;;
14096;SDS011;7125;48.106;11.544;2023-07-29T12:51:57;2.85;;;2.60;;
14096;SDS011;7125;48.106;11.544;2023-07-29T12:54:24;2.67;;;2.47;;
14096;SDS011;7125;48.106;11.544;2023-07-29T12:56:51;3.45;;;2.78;;
14096;SDS011;7125;48.106;11.544;2023-07-29T12:59:18;3.72;;;3.40;;
14096;SDS011;7125;48.106;11.544;2023-07-29T13:01:45;3.20;;;2.90;;
14096;SDS011;7125;48.106;11.544;2023-07-29T13:04:12;2.88;;;2.60;;
14096;SDS011;7125;48.106;11.544;2023-07-29T13:06:40;5.95;;;3.00;;
14096;SDS011;7125;48.106;11.544;2023-07-29T13:09:07;2.83;;;2.50;;
14096;SDS011;7125;48.106;11.544;2023-07-29T13:11:34;3.83;;;3.15;;
14096;SDS011;7125;48.106;11.544;2023-07-29T13:14:01;3.60;;;3.10;;
14096;SDS011;7125;48.106;11.544;2023-07-29T13:16:28;3.72;;;3.20;;
14096;SDS011;7125;48.106;11.544;2023-07-29T13:18:55;9.30;;;3.90;;
14096;SDS011;7125;48.106;11.544;2023-07-29T13:21:22;5.60;;;3.65;;
14096;SDS011;7125;48.106;11.544;2023-07-29T13:23:50;3.22;;;2.92;;
14096;SDS011;7125;48.106;11.544;2023-07-29T13:26:17;5.78;;;3.42;;
14096;SDS011;7125;48.106;11.544;2023-07-29T13:28:44;3.63;;;3.30;;
14096;SDS011;7125;48.106;11.544;2023-07-29T13:31:11;3.38;;;3.10;;
14096;SDS011;7125;48.106;11.544;2023-07-29T13:33:39;3.88;;;3.50;;
14096;SDS011;7125;48.106;11.544;2023-07-29T13:36:05;3.55;;;3.25;;
14096;SDS011;7125;48.106;11.544;2023-07-29T13:38:33;4.55;;;3.85;;
14096;SDS011;7125;48.106;11.544;2023-07-29T13:41:01;7.35;;;3.17;;
14096;SDS011;7125;48.106;11.544;2023-07-29T13:43:28;5.30;;;4.47;;
14096;SDS011;7125;48.106;11.544;2023-07-29T13:45:55;8.40;;;4.28;;
14096;SDS011;7125;48.106;11.544;2023-07-29T13:48:22;4.50;;;4.10;;
14096;SDS011;7125;48.106;11.544;2023-07-29T13:50:49;5.55;;;4.60;;
14096;SDS011;7125;48.106;11.544;2023-07-29T13:53:17;4.20;;;3.78;;
14096;SDS011;7125;48.106;11.544;2023-07-29T13:55:44;4.75;;;4.18;;
14096;SDS011;7125;48.106;11.544;2023-07-29T13:58:12;4.78;;;4.35;;
14096;SDS011;7125;48.106;11.544;2023-07-29T14:00:39;4.25;;;3.85;;
14096;SDS011;7125;48.106;11.544;2023-07-29T14:03:06;5.45;;;4.30;;
14096;SDS011;7125;48.106;11.544;2023-07-29T14:05:33;4.63;;;4.20;;
14096;SDS011;7125;48.106;11.544;2023-07-29T14:08:00;9.63;;;6.15;;
14096;SDS011;7125;48.106;11.544;2023-07-29T14:10:27;9.10;;;5.20;;
14096;SDS011;7125;48.106;11.544;2023-07-29T14:12:53;5.65;;;5.05;;
14096;SDS011;7125;48.106;11.544;2023-07-29T14:15:22;5.85;;;5.25;;
14096;SDS011;7125;48.106;11.544;2023-07-29T14:17:49;4.78;;;4.28;;
14096;SDS011;7125;48.106;11.544;2023-07-29T14:20:16;4.75;;;4.32;;
14096;SDS011;7125;48.106;11.544;2023-07-29T14:22:43;4.32;;;3.75;;
14096;SDS011;7125;48.106;11.544;2023-07-29T14:25:10;4.55;;;4.13;;
14096;SDS011;7125;48.106;11.544;2023-07-29T14:27:37;4.88;;;4.00;;
14096;SDS011;7125;48.106;11.544;2023-07-29T14:30:04;4.32;;;3.92;;
14096;SDS011;7125;48.106;11.544;2023-07-29T14:32:34;4.63;;;4.22;;
14096;SDS011;7125;48.106;11.544;2023-07-29T14:35:02;4.53;;;4.10;;
14096;SDS011;7125;48.106;11.544;2023-07-29T14:37:30;4.20;;;3.90;;
14096;SDS011;7125;48.106;11.544;2023-07-29T14:39:57;6.25;;;4.63;;
14096;SDS011;7125;48.106;11.544;2023-07-29T14:42:24;5.40;;;4.20;;
14096;SDS011;7125;48.106;11.544;2023-07-29T14:44:51;4.90;;;4.40;;
14096;SDS011;7125;48.106;11.544;2023-07-29T14:47:18;4.93;;;3.88;;
14096;SDS011;7125;48.106;11.544;2023-07-29T14:49:46;5.15;;;4.30;;
14096;SDS011;7125;48.106;11.544;2023-07-29T14:52:13;4.90;;;4.43;;
14096;SDS011;7125;48.106;11.544;2023-07-29T14:54:40;6.80;;;4.40;;
14096;SDS011;7125;48.106;11.544;2023-07-29T14:57:07;5.05;;;3.85;;
14096;SDS011;7125;48.106;11.544;2023-07-29T14:59:35;4.50;;;4.10;;